Igor I Sikorsky Memorial Airport
KBDR : now visible

Airfield :











YOU CAN JOIN US ON...

 
LOGIN :

Register | Disclaimer

   EN    FR    IT 

 









Legend :    VFR   Marginal VFR   IFR   Intensive IFR   Very Intensive IFR
Visi :
Ceiling :
>= 8 km
>= 3000ft
5 to 8 km
1000 to 3000 ft
1500m to 5 km
500 to 1000 ft
800 to 1500m
200 to 500 ft
< 800m
< 200 ft
Symbols :   Thunderstorms  Fog  Heavy snow  Heavy precipitations  Wind > 20 kt






- Airport Elevation : 9 ft
- IATA code : BDR


KBDR - Igor I Sikorsky Memorial

CURRENT METAR :
  • 291452Z 33008G16KT 10SM OVC034 M01/M09 A3008 RMK AO2 SLP186 T10061089 51022

EXPIRED METARs :
  • 291352Z 32009KT 10SM OVC032 M01/M08 A3006 RMK AO2 SLP180 T10061083
  • 291252Z 35010G19KT 10SM OVC033 M01/M08 A3005 RMK AO2 SLP174 T10061083

TAF KBDR
Valid from the 29 at 13:00 until the 30 at 12:00 UTC


291245Z 2913/3012 33006KT P6SM BKN040
FM291500 32012KT P6SM SCT040
FM291800 33012KT P6SM SCT250
FM292300 34008KT P6SM SKC
FM300900 02008KT P6SM SKC



MET'MAP, your aeronautical weather chart ! - Copyright ORBIFLY December 2007 - Disclaimer

ORBIFLY MET'MAP TEAM :

Programming & Development : Alexandra Zaïnal
Concept & original design : Baudouin d'Aumeries
Assistance for programming : Marc-Olivier Méhu
Technical & hardware support : Manuel Goepfert

Contact : metmap@orbifly.com




SOURCES & CREDITS :

   NOAA       Earth
Advisory